Time;durP1;ratioP1;P1;durP2;ratioP2;P2;SDS_P1;SDS_P2;PMS_P1;PMS_P2;Temp;Humidity;BMP_temperature;BMP_pressure;BME280_temperature;BME280_humidity;BME280_pressure;Samples;Min_cycle;Max_cycle;Signal;HPM_P1;HPM_P2
2024/04/05 00:00:49;;;;;;;29.05;27.52;;;;;;;9.20;100.00;101265.06;5097981;28;20047;-77
2024/04/05 00:03:25;;;;;;;29.05;27.45;;;;;;;9.09;100.00;101261.03;5104094;28;20598;-77
2024/04/05 00:05:52;;;;;;;31.20;29.60;;;;;;;8.67;100.00;101265.09;5104031;28;20044;-77
2024/04/05 00:08:19;;;;;;;31.92;29.85;;;;;;;9.33;100.00;101269.72;5096015;28;20447;-77
2024/04/05 00:10:45;;;;;;;25.13;23.63;;;;;;;9.32;100.00;101255.63;5095880;28;20483;-77
2024/04/05 00:13:12;;;;;;;25.73;24.23;;;;;;;9.15;100.00;101264.78;5102904;28;20144;-77
2024/04/05 00:15:39;;;;;;;25.52;24.00;;;;;;;9.55;100.00;101268.75;5096920;28;20052;-75
2024/04/05 00:18:15;;;;;;;26.13;24.52;;;;;;;9.74;100.00;101263.88;5105613;28;20051;-75
2024/04/05 00:21:02;;;;;;;24.90;23.30;;;;;;;9.88;100.00;101263.00;5080894;28;20055;-75
2024/04/05 00:23:29;;;;;;;26.23;24.48;;;;;;;9.35;100.00;101268.53;5061998;28;20059;-75
2024/04/05 00:25:59;;;;;;;27.98;26.48;;;;;;;8.95;100.00;101269.78;5104327;28;20044;-76
2024/04/05 00:28:37;;;;;;;29.40;27.80;;;;;;;9.24;100.00;101273.47;5105138;28;20418;-77
2024/04/05 00:31:05;;;;;;;27.95;26.45;;;;;;;9.46;100.00;101269.06;5097199;28;20048;-77
2024/04/05 00:33:34;;;;;;;30.40;28.80;;;;;;;9.45;100.00;101270.06;5095074;28;20138;-77
2024/04/05 00:36:01;;;;;;;30.55;28.98;;;;;;;9.99;100.00;101281.09;5101213;28;20055;-77
2024/04/05 00:38:29;;;;;;;31.10;29.50;;;;;;;10.06;100.00;101267.88;5108477;28;20052;-77
2024/04/05 00:40:59;;;;;;;29.52;28.02;;;;;;;9.70;100.00;101265.25;5107410;27;20063;-77
2024/04/05 00:43:26;;;;;;;29.58;27.92;;;;;;;9.86;100.00;101280.94;5099656;28;20052;-75
2024/04/05 00:45:56;;;;;;;30.95;29.05;;;;;;;10.13;100.00;101275.91;5104910;28;20052;-75
2024/04/05 00:48:24;;;;;;;27.33;25.63;;;;;;;10.01;100.00;101281.72;5095378;28;20517;-76
2024/04/05 00:50:58;;;;;;;35.33;33.42;;;;;;;9.99;100.00;101285.59;5094887;28;20052;-76
2024/04/05 00:53:31;;;;;;;30.10;28.33;;;;;;;10.10;100.00;101287.72;5101135;28;20488;-77
2024/04/05 00:55:58;;;;;;;29.52;27.83;;;;;;;10.25;100.00;101282.38;5091842;28;20044;-77
2024/04/05 00:58:26;;;;;;;29.65;28.05;;;;;;;10.21;100.00;101283.75;5100205;28;20051;-77
2024/04/05 01:00:53;;;;;;;29.38;27.77;;;;;;;10.14;100.00;101278.41;5101929;28;20105;-76
2024/04/05 01:03:21;;;;;;;34.63;32.63;;;;;;;10.17;100.00;101278.00;5092265;28;20591;-75
2024/04/05 01:05:49;;;;;;;32.40;30.70;;;;;;;10.06;100.00;101275.84;5097435;28;20047;-77
2024/04/05 01:08:18;;;;;;;32.60;30.65;;;;;;;10.02;100.00;101288.69;5108071;28;20097;-75
2024/04/05 01:10:44;;;;;;;32.55;30.95;;;;;;;11.10;100.00;101296.53;5107529;27;20552;-75
2024/04/05 01:13:12;;;;;;;33.30;31.60;;;;;;;10.24;100.00;101300.13;5098963;28;20214;-75
2024/04/05 01:15:39;;;;;;;32.92;31.13;;;;;;;10.17;100.00;101301.91;5094450;28;20131;-75
2024/04/05 01:18:08;;;;;;;31.98;30.17;;;;;;;10.11;100.00;101297.34;5103357;28;20044;-76
2024/04/05 01:20:38;;;;;;;34.25;32.45;;;;;;;9.85;100.00;101311.97;5104390;28;20043;-76
2024/04/05 01:23:08;;;;;;;35.33;33.53;;;;;;;9.74;100.00;101303.66;5102759;28;20044;-75
2024/04/05 01:25:35;;;;;;;31.98;30.25;;;;;;;9.67;100.00;101306.22;5096885;28;20499;-75
2024/04/05 01:28:04;;;;;;;32.50;30.80;;;;;;;9.43;100.00;101302.06;5096041;28;20044;-75
2024/04/05 01:30:30;;;;;;;31.67;29.92;;;;;;;9.22;100.00;101312.56;5090868;28;20739;-75
2024/04/05 01:32:58;;;;;;;32.38;30.67;;;;;;;9.62;100.00;101309.47;5090182;28;20075;-76
2024/04/05 01:35:30;;;;;;;32.90;31.20;;;;;;;9.84;100.00;101309.50;5093955;28;20506;-75
2024/04/05 01:37:58;;;;;;;32.22;30.52;;;;;;;10.34;100.00;101307.81;5093540;28;20151;-75
2024/04/05 01:40:26;;;;;;;34.88;33.03;;;;;;;10.14;100.00;101310.25;5089966;28;20106;-76
2024/04/05 01:42:55;;;;;;;34.90;33.20;;;;;;;10.74;100.00;101310.81;5090478;28;20055;-76
2024/04/05 01:45:28;;;;;;;31.60;30.00;;;;;;;10.23;100.00;101318.91;5091983;28;20043;-77
2024/04/05 01:48:05;;;;;;;36.00;34.20;;;;;;;9.99;100.00;101312.94;5090778;28;20131;-75
2024/04/05 01:50:31;;;;;;;34.17;32.38;;;;;;;10.05;100.00;101320.16;5093855;28;20511;-75
2024/04/05 01:53:01;;;;;;;34.80;32.88;;;;;;;9.98;100.00;101326.38;5095440;28;20148;-75
2024/04/05 01:55:38;;;;;;;38.88;36.88;;;;;;;10.03;100.00;101316.03;5108968;28;20044;-75
2024/04/05 01:58:10;;;;;;;32.42;30.73;;;;;;;9.72;100.00;101322.44;5105292;28;20051;-75
2024/04/05 02:00:37;;;;;;;32.72;31.02;;;;;;;9.74;100.00;101327.53;5100390;28;20488;-74
2024/04/05 02:03:04;;;;;;;34.75;32.95;;;;;;;9.64;100.00;101328.63;5106916;28;20108;-75
2024/04/05 02:05:30;;;;;;;36.90;35.10;;;;;;;9.77;100.00;101332.47;5102848;28;20060;-75
2024/04/05 02:08:00;;;;;;;33.63;31.88;;;;;;;9.74;100.00;101341.63;5105815;28;20083;-77
2024/04/05 02:10:29;;;;;;;32.88;31.27;;;;;;;9.77;100.00;101332.47;5106313;28;20051;-77
2024/04/05 02:12:56;;;;;;;36.00;33.30;;;;;;;9.83;100.00;101334.38;5109055;28;20059;-77
2024/04/05 02:15:24;;;;;;;33.00;31.25;;;;;;;10.01;100.00;101334.78;5096340;28;20124;-78
2024/04/05 02:17:51;;;;;;;33.22;31.52;;;;;;;9.69;100.00;101340.53;5093549;28;20551;-76
2024/04/05 02:20:18;;;;;;;37.90;35.80;;;;;;;10.06;100.00;101345.69;5084210;28;20055;-76
2024/04/05 02:22:45;;;;;;;39.50;37.40;;;;;;;10.65;100.00;101347.34;5097170;28;20047;-76
2024/04/05 02:25:11;;;;;;;35.55;33.85;;;;;;;10.47;100.00;101339.00;5103285;28;20056;-75
2024/04/05 02:27:38;;;;;;;38.63;36.83;;;;;;;9.83;100.00;101337.88;5099943;28;20047;-75
2024/04/05 02:30:06;;;;;;;35.35;33.65;;;;;;;9.54;100.00;101340.56;5100465;28;20048;-77
2024/04/05 02:32:40;;;;;;;42.10;39.97;;;;;;;9.96;100.00;101344.34;5108714;28;20769;-77
2024/04/05 02:35:08;;;;;;;37.58;35.75;;;;;;;9.97;100.00;101343.31;5102900;28;20052;-75
2024/04/05 02:37:36;;;;;;;30.73;29.23;;;;;;;10.41;100.00;101343.22;5102784;28;20060;-75
2024/04/05 02:40:04;;;;;;;38.10;36.30;;;;;;;10.00;100.00;101341.13;5107680;28;20051;-75
2024/04/05 02:42:31;;;;;;;33.63;32.03;;;;;;;9.76;100.00;101352.06;5102863;28;20074;-76
2024/04/05 02:44:57;;;;;;;37.47;35.53;;;;;;;9.54;100.00;101361.78;5108751;28;20495;-77
2024/04/05 02:47:56;;;;;;;39.88;37.97;;;;;;;9.15;100.00;101361.00;5098675;28;20104;-77
2024/04/05 02:50:25;;;;;;;33.17;31.58;;;;;;;9.04;100.00;101363.25;5085232;28;20064;-77
2024/04/05 02:53:01;;;;;;;35.72;34.03;;;;;;;8.41;100.00;101363.44;5101171;28;20044;-77
2024/04/05 02:55:40;;;;;;;31.75;30.25;;;;;;;8.69;100.00;101371.69;5101605;28;20483;-78
2024/04/05 02:58:08;;;;;;;32.35;30.85;;;;;;;8.19;100.00;101372.13;5093776;28;20052;-76
2024/04/05 03:00:43;;;;;;;38.97;37.20;;;;;;;8.34;100.00;101374.88;5097460;28;20051;-77
2024/04/05 03:03:12;;;;;;;31.17;29.10;;;;;;;8.09;100.00;101372.38;5097155;28;20050;-77
2024/04/05 03:05:38;;;;;;;28.95;27.65;;;;;;;8.16;100.00;101369.84;5109518;28;20048;-77
2024/04/05 03:08:06;;;;;;;29.65;28.35;;;;;;;7.36;100.00;101375.28;5094651;28;20043;-77
2024/04/05 03:10:33;;;;;;;29.83;28.45;;;;;;;7.53;100.00;101382.16;5091538;28;20484;-77
2024/04/05 03:13:00;;;;;;;30.85;29.35;;;;;;;7.64;100.00;101373.88;5091148;28;20117;-77
2024/04/05 03:15:26;;;;;;;30.63;29.23;;;;;;;7.56;100.00;101381.81;5090030;28;20048;-77
2024/04/05 03:17:53;;;;;;;29.02;27.67;;;;;;;7.39;100.00;101390.81;5110000;28;20048;-77
2024/04/05 03:20:22;;;;;;;29.15;27.75;;;;;;;7.32;100.00;101399.41;5100224;28;20048;-77
2024/04/05 03:22:50;;;;;;;28.38;27.17;;;;;;;7.30;100.00;101396.09;5103988;28;20047;-77
2024/04/05 03:25:20;;;;;;;27.65;26.55;;;;;;;7.61;100.00;101395.38;5106181;28;20052;-78
2024/04/05 03:27:48;;;;;;;30.67;29.05;;;;;;;7.65;100.00;101390.56;5099097;28;20050;-77
2024/04/05 03:30:14;;;;;;;29.13;27.92;;;;;;;7.34;100.00;101386.00;5095658;28;20058;-78
2024/04/05 03:32:41;;;;;;;27.35;26.05;;;;;;;6.92;100.00;101404.72;5090606;28;20054;-78
2024/04/05 03:35:31;;;;;;;25.13;23.83;;;;;;;6.39;100.00;101406.81;5097985;28;20051;-77
2024/04/05 03:37:58;;;;;;;22.90;21.90;;;;;;;6.55;100.00;101412.09;5094779;28;20059;-78
2024/04/05 03:40:26;;;;;;;24.17;22.92;;;;;;;6.64;100.00;101420.88;5100125;28;20105;-75
2024/04/05 03:43:07;;;;;;;23.50;22.50;;;;;;;6.87;100.00;101421.88;5093807;28;20060;-75
2024/04/05 03:45:34;;;;;;;25.02;23.92;;;;;;;6.89;100.00;101427.00;5096403;28;20055;-75
2024/04/05 03:48:23;;;;;;;25.88;24.52;;;;;;;6.45;100.00;101429.91;5104904;28;20059;-75
2024/04/05 03:50:51;;;;;;;27.58;26.17;;;;;;;6.69;100.00;101431.78;5099236;28;20052;-75
2024/04/05 03:53:18;;;;;;;27.55;26.15;;;;;;;6.26;100.00;101438.06;5096712;28;20079;-75
2024/04/05 03:55:45;;;;;;;28.33;26.92;;;;;;;6.40;100.00;101427.75;5100966;28;20098;-76
2024/04/05 03:58:13;;;;;;;27.98;26.58;;;;;;;6.49;100.00;101436.50;5096503;28;20048;-75
2024/04/05 04:00:40;;;;;;;26.63;25.13;;;;;;;6.30;100.00;101426.25;5101838;28;20521;-75
2024/04/05 04:03:07;;;;;;;27.02;25.42;;;;;;;6.00;100.00;101424.97;5111244;28;20867;-75
2024/04/05 04:05:33;;;;;;;27.30;25.80;;;;;;;5.94;100.00;101434.34;5105992;28;20047;-76
2024/04/05 04:08:05;;;;;;;25.02;23.63;;;;;;;6.09;100.00;101435.41;5097288;28;20459;-75
2024/04/05 04:10:31;;;;;;;23.48;22.08;;;;;;;5.92;100.00;101437.09;5096280;28;20130;-75
2024/04/05 04:12:59;;;;;;;24.20;22.60;;;;;;;6.23;100.00;101441.84;5105496;28;20056;-75
2024/04/05 04:15:25;;;;;;;23.95;22.65;;;;;;;6.15;100.00;101449.75;5096549;28;20508;-75
2024/04/05 04:17:52;;;;;;;24.95;23.65;;;;;;;6.15;100.00;101449.75;5099038;28;20056;-77
2024/04/05 04:20:19;;;;;;;24.65;22.95;;;;;;;6.16;100.00;101454.03;5091910;28;20492;-77
2024/04/05 04:22:46;;;;;;;22.85;21.48;;;;;;;5.93;100.00;101464.31;5102597;28;20112;-77
2024/04/05 04:25:14;;;;;;;22.92;21.63;;;;;;;6.27;100.00;101466.13;5101889;28;20044;-77
2024/04/05 04:27:42;;;;;;;22.08;20.75;;;;;;;6.38;100.00;101474.59;5099038;28;20050;-77
2024/04/05 04:30:17;;;;;;;25.13;23.73;;;;;;;6.68;100.00;101472.34;5107863;28;20132;-77
2024/04/05 04:32:43;;;;;;;24.13;22.83;;;;;;;6.84;100.00;101484.75;5093798;28;20101;-77
2024/04/05 04:35:10;;;;;;;25.80;24.40;;;;;;;6.81;100.00;101487.72;5102102;28;20051;-77
2024/04/05 04:37:36;;;;;;;27.05;24.90;;;;;;;6.99;100.00;101488.41;5106715;28;20120;-75
2024/04/05 04:40:04;;;;;;;26.20;24.80;;;;;;;7.06;100.00;101494.69;5091041;28;20048;-75
2024/04/05 04:42:32;;;;;;;27.90;26.30;;;;;;;7.10;100.00;101500.47;5109392;28;20062;-76
2024/04/05 04:44:59;;;;;;;25.92;24.42;;;;;;;7.15;100.00;101497.34;5101049;28;20491;-75
2024/04/05 04:47:32;;;;;;;26.80;25.30;;;;;;;7.36;100.00;101500.31;5102536;28;20044;-75
2024/04/05 04:50:00;;;;;;;29.20;27.55;;;;;;;7.54;100.00;101505.44;5106127;28;20101;-75
2024/04/05 04:52:28;;;;;;;27.48;25.98;;;;;;;7.77;100.00;101509.00;5104164;28;20036;-75
2024/04/05 04:54:56;;;;;;;27.08;25.58;;;;;;;7.94;100.00;101509.00;5097600;28;20477;-75
2024/04/05 04:57:23;;;;;;;27.15;25.65;;;;;;;8.02;100.00;101509.00;5094000;28;20755;-77
2024/04/05 04:59:52;;;;;;;28.20;26.60;;;;;;;8.14;100.00;101514.72;5096170;28;20052;-77
2024/04/05 05:02:18;;;;;;;28.80;27.20;;;;;;;8.38;100.00;101512.03;5096643;28;20127;-77
2024/04/05 05:04:48;;;;;;;30.77;29.08;;;;;;;8.54;100.00;101512.97;5103209;28;20051;-77
2024/04/05 05:07:14;;;;;;;28.13;26.73;;;;;;;8.64;100.00;101509.09;5092215;28;20108;-77
2024/04/05 05:09:42;;;;;;;28.40;26.80;;;;;;;8.75;100.00;101515.00;5100453;28;20590;-76
2024/04/05 05:12:08;;;;;;;27.10;25.60;;;;;;;8.94;100.00;101514.53;5100359;28;20059;-76
2024/04/05 05:14:35;;;;;;;24.05;22.73;;;;;;;9.08;100.00;101515.63;5097683;28;20093;-75
2024/04/05 05:17:05;;;;;;;27.67;26.13;;;;;;;9.29;100.00;101523.75;5097330;27;20055;-77
2024/04/05 05:19:40;;;;;;;28.05;26.55;;;;;;;9.39;100.00;101529.63;5097590;28;20055;-78
2024/04/05 05:22:06;;;;;;;28.52;26.95;;;;;;;9.52;100.00;101529.00;5080842;28;20485;-77
2024/04/05 05:24:34;;;;;;;28.70;27.10;;;;;;;9.77;100.00;101534.94;5097861;28;20065;-77
2024/04/05 05:27:12;;;;;;;29.80;28.10;;;;;;;9.72;100.00;101536.47;5090609;28;20081;-78
2024/04/05 05:29:40;;;;;;;29.10;27.40;;;;;;;9.79;100.00;101538.22;5101099;28;20921;-77
2024/04/05 05:32:11;;;;;;;29.77;28.02;;;;;;;9.67;100.00;101533.53;5097058;28;20108;-77
2024/04/05 05:34:39;;;;;;;30.30;28.60;;;;;;;10.00;100.00;101534.03;5089964;28;20044;-75
2024/04/05 05:37:05;;;;;;;27.30;25.80;;;;;;;10.27;100.00;101551.19;5093055;28;20048;-76
2024/04/05 05:39:33;;;;;;;28.27;26.67;;;;;;;10.41;100.00;101552.19;5094480;28;20048;-75
2024/04/05 05:42:00;;;;;;;27.67;26.08;;;;;;;10.78;100.00;101554.69;5096624;28;20047;-76
2024/04/05 05:44:27;;;;;;;26.52;25.02;;;;;;;10.79;100.00;101544.91;5103450;28;20079;-76
2024/04/05 05:46:53;;;;;;;27.50;25.75;;;;;;;10.98;100.00;101540.78;5092396;28;20048;-76
2024/04/05 05:49:31;;;;;;;27.65;25.95;;;;;;;11.33;100.00;101547.09;5097388;28;20048;-75
2024/04/05 05:51:57;;;;;;;30.10;28.40;;;;;;;11.28;100.00;101540.69;5096182;28;20051;-77
2024/04/05 05:54:24;;;;;;;29.15;27.35;;;;;;;11.61;100.00;101547.13;5097729;28;20052;-76
2024/04/05 05:56:53;;;;;;;29.63;27.83;;;;;;;12.16;100.00;101544.66;5094680;28;20420;-77
2024/04/05 05:59:20;;;;;;;31.30;29.50;;;;;;;12.19;100.00;101544.28;5092631;28;20439;-76
2024/04/05 06:01:46;;;;;;;31.30;29.50;;;;;;;12.43;100.00;101547.47;5096867;28;20435;-77
2024/04/05 06:04:14;;;;;;;31.15;29.25;;;;;;;12.34;100.00;101547.66;5095912;28;20135;-77
2024/04/05 06:06:42;;;;;;;32.30;30.50;;;;;;;12.59;100.00;101549.81;5104855;28;20512;-76
2024/04/05 06:09:20;;;;;;;31.52;29.63;;;;;;;12.73;100.00;101553.34;5100906;28;20051;-77
2024/04/05 06:11:47;;;;;;;32.90;30.42;;;;;;;12.86;100.00;101544.56;5089837;28;20048;-75
2024/04/05 06:14:15;;;;;;;32.15;29.95;;;;;;;13.07;100.00;101537.25;5094796;28;20059;-75
2024/04/05 06:16:57;;;;;;;32.58;30.77;;;;;;;13.03;100.00;101543.97;5101762;28;20519;-75
2024/04/05 06:19:27;;;;;;;;;;;;;;;13.40;100.00;101541.81;5101535;28;20141;-75
2024/04/05 06:21:54;;;;;;;31.88;30.08;;;;;;;13.34;100.00;101539.97;5091507;28;20720;-75
2024/04/05 06:24:21;;;;;;;30.15;28.45;;;;;;;12.73;100.00;101551.50;5097723;28;20047;-75
2024/04/05 06:26:47;;;;;;;29.80;28.10;;;;;;;13.01;100.00;101553.22;5108546;28;20411;-75
2024/04/05 06:29:14;;;;;;;31.13;29.13;;;;;;;13.76;100.00;101545.91;5104531;28;20526;-75
2024/04/05 06:31:49;;;;;;;30.85;28.85;;;;;;;13.41;100.00;101553.31;5104806;28;20056;-75
2024/04/05 06:34:16;;;;;;;32.00;30.00;;;;;;;14.03;100.00;101551.22;5091823;28;20071;-77
2024/04/05 06:36:46;;;;;;;30.88;28.98;;;;;;;13.89;100.00;101553.94;5098202;28;20134;-77
2024/04/05 06:39:15;;;;;;;30.05;28.25;;;;;;;13.41;100.00;101558.66;5100754;28;20804;-77
2024/04/05 06:41:41;;;;;;;30.30;28.20;;;;;;;14.26;100.00;101564.13;5099774;28;20419;-77
2024/04/05 06:44:15;;;;;;;30.33;28.42;;;;;;;14.28;100.00;101562.91;5094714;28;20059;-77
2024/04/05 06:46:41;;;;;;;30.65;28.75;;;;;;;14.25;100.00;101575.84;5097865;28;20127;-77
2024/04/05 06:49:08;;;;;;;30.40;28.50;;;;;;;14.37;100.00;101579.50;5097541;28;20097;-77
2024/04/05 06:51:34;;;;;;;32.22;29.77;;;;;;;14.36;100.00;101576.00;5102560;28;20489;-77
2024/04/05 06:54:03;;;;;;;32.25;30.15;;;;;;;15.21;100.00;101581.22;5107137;28;20134;-77
2024/04/05 06:56:30;;;;;;;30.35;28.35;;;;;;;14.84;100.00;101585.53;5109495;28;20108;-77
2024/04/05 06:58:58;;;;;;;31.75;29.55;;;;;;;15.29;100.00;101593.53;5098482;28;20044;-77
2024/04/05 07:01:33;;;;;;;32.17;30.08;;;;;;;14.98;100.00;101599.69;5097244;28;20050;-76
2024/04/05 07:04:26;;;;;;;31.38;29.27;;;;;;;14.70;100.00;101600.81;5098546;28;20083;-75
2024/04/05 07:07:01;;;;;;;32.53;30.42;;;;;;;15.11;100.00;101612.97;5066965;28;20144;-76
2024/04/05 07:09:29;;;;;;;31.15;28.95;;;;;;;15.87;100.00;101605.91;5096413;28;20048;-76
2024/04/05 07:12:07;;;;;;;32.60;30.30;;;;;;;15.00;100.00;101608.28;5104679;28;20870;-75
2024/04/05 07:14:34;;;;;;;31.70;29.60;;;;;;;15.28;100.00;101611.44;5093530;28;20056;-75
2024/04/05 07:17:01;;;;;;;33.63;31.20;;;;;;;14.41;100.00;101612.81;5102438;28;20831;-75
2024/04/05 07:19:28;;;;;;;29.92;27.83;;;;;;;15.00;100.00;101603.75;5107422;28;20043;-75
2024/04/05 07:21:57;;;;;;;31.33;29.13;;;;;;;14.71;100.00;101612.34;5104244;28;20485;-75
2024/04/05 07:24:24;;;;;;;32.50;30.30;;;;;;;14.74;100.00;101607.41;5105904;28;20047;-77
2024/04/05 07:26:51;;;;;;;34.17;31.98;;;;;;;15.17;100.00;101613.97;5104216;28;20480;-75
2024/04/05 07:29:43;;;;;;;33.65;31.35;;;;;;;16.07;100.00;101609.22;5090760;28;20040;-75
2024/04/05 07:32:09;;;;;;;32.58;30.48;;;;;;;15.99;100.00;101610.31;5099355;28;20484;-75
2024/04/05 07:34:37;;;;;;;33.08;30.88;;;;;;;16.01;100.00;101612.78;5089872;28;20048;-75
2024/04/05 07:37:04;;;;;;;33.03;31.02;;;;;;;16.14;100.00;101604.59;5094380;28;20060;-75
2024/04/05 07:39:39;;;;;;;32.45;30.45;;;;;;;15.94;100.00;101612.81;5110082;28;20703;-75
2024/04/05 07:42:05;;;;;;;33.08;31.08;;;;;;;16.49;100.00;101617.47;5110223;28;20077;-75
2024/04/05 07:44:32;;;;;;;31.38;29.38;;;;;;;15.96;100.00;101605.38;5109632;28;20062;-75
2024/04/05 07:47:09;;;;;;;31.10;29.20;;;;;;;16.96;100.00;101614.25;5099296;28;20047;-75
2024/04/05 07:49:37;;;;;;;29.33;27.42;;;;;;;16.56;100.00;101610.16;5101434;28;20423;-75
2024/04/05 07:52:03;;;;;;;29.38;27.58;;;;;;;16.70;100.00;101619.69;5105145;27;20051;-75
2024/04/05 07:54:31;;;;;;;31.85;29.85;;;;;;;15.97;100.00;101607.03;5099614;28;20790;-77
2024/04/05 07:56:57;;;;;;;29.70;27.80;;;;;;;16.61;100.00;101618.34;5096523;28;20052;-77
2024/04/05 07:59:24;;;;;;;29.95;28.05;;;;;;;17.24;100.00;101610.97;5111277;28;20090;-77
2024/04/05 08:01:54;;;;;;;32.22;30.33;;;;;;;17.13;100.00;101610.69;5101392;28;20412;-77
2024/04/05 08:04:30;;;;;;;31.08;29.17;;;;;;;16.83;100.00;101612.56;5093250;28;20055;-77
2024/04/05 08:06:59;;;;;;;33.65;31.58;;;;;;;17.36;100.00;101604.56;5110129;28;20047;-77
2024/04/05 08:09:28;;;;;;;32.97;30.98;;;;;;;17.40;100.00;101605.78;5099657;28;20044;-75
2024/04/05 08:12:00;;;;;;;31.83;29.83;;;;;;;17.63;100.00;101604.16;5107920;28;20062;-75
2024/04/05 08:14:27;;;;;;;33.10;30.80;;;;;;;17.98;100.00;101598.03;5099169;28;20054;-75
2024/04/05 08:16:54;;;;;;;31.58;29.58;;;;;;;17.49;100.00;101608.94;5106132;28;20075;-75
2024/04/05 08:19:21;;;;;;;32.35;30.38;;;;;;;18.47;100.00;101601.28;5100458;28;20122;-75
2024/04/05 08:21:49;;;;;;;32.00;29.80;;;;;;;17.38;100.00;101613.22;5108330;28;20040;-76
2024/04/05 08:24:16;;;;;;;31.30;29.35;;;;;;;18.04;100.00;101599.81;5105324;28;20105;-76
2024/04/05 08:26:55;;;;;;;33.10;31.00;;;;;;;17.40;100.00;101607.63;5107774;28;20044;-77
2024/04/05 08:29:25;;;;;;;33.17;30.85;;;;;;;17.88;100.00;101603.97;5102482;28;20050;-75
2024/04/05 08:31:56;;;;;;;30.42;28.23;;;;;;;17.89;100.00;101604.81;5091900;28;20048;-75
2024/04/05 08:34:23;;;;;;;31.38;29.10;;;;;;;17.95;100.00;101595.84;5104183;28;20567;-75
2024/04/05 08:36:51;;;;;;;33.03;30.63;;;;;;;18.52;100.00;101596.00;5105852;28;20059;-76
2024/04/05 08:39:18;;;;;;;32.05;29.75;;;;;;;17.71;100.00;101603.03;5099236;28;20089;-75
2024/04/05 08:41:53;;;;;;;31.67;29.70;;;;;;;18.83;100.00;101604.72;5096566;28;20052;-76
2024/04/05 08:44:21;;;;;;;34.47;32.35;;;;;;;19.11;100.00;101604.72;5102833;28;20052;-76
2024/04/05 08:46:48;;;;;;;34.30;32.13;;;;;;;18.22;100.00;101601.53;5091423;28;20113;-75
2024/04/05 08:49:19;;;;;;;34.08;31.98;;;;;;;18.09;100.00;101599.91;5101983;28;20058;-76
2024/04/05 08:51:45;;;;;;;32.28;30.08;;;;;;;18.71;100.00;101602.03;5109524;28;20048;-75
2024/04/05 08:54:14;;;;;;;35.17;32.88;;;;;;;18.28;100.00;101595.22;5096219;28;20073;-76
2024/04/05 08:56:43;;;;;;;33.42;31.23;;;;;;;17.63;100.00;101601.47;5104317;28;20072;-76
2024/04/05 08:59:13;;;;;;;33.97;31.65;;;;;;;18.46;100.00;101596.97;5102811;28;20052;-76
2024/04/05 09:01:46;;;;;;;32.42;30.23;;;;;;;18.48;100.00;101597.50;5098061;28;20048;-76
2024/04/05 09:04:14;;;;;;;33.08;30.98;;;;;;;18.53;100.00;101597.63;5100163;28;20451;-77
2024/04/05 09:06:46;;;;;;;36.55;34.25;;;;;;;18.73;100.00;101591.88;5098658;28;20051;-77
2024/04/05 09:09:25;;;;;;;35.53;33.22;;;;;;;18.32;100.00;101588.31;5111185;28;20134;-77
2024/04/05 09:12:01;;;;;;;35.70;33.20;;;;;;;18.04;100.00;101597.13;5102238;28;20051;-76
2024/04/05 09:14:29;;;;;;;33.10;30.80;;;;;;;18.26;100.00;101589.25;5102185;28;20665;-75
2024/04/05 09:16:56;;;;;;;34.28;31.77;;;;;;;18.11;100.00;101595.13;5094178;28;20846;-76
2024/04/05 09:19:25;;;;;;;34.40;32.00;;;;;;;18.13;100.00;101587.63;5105671;28;20058;-75
2024/04/05 09:21:52;;;;;;;36.58;34.08;;;;;;;18.58;100.00;101595.06;5104795;28;20576;-75
2024/04/05 09:24:20;;;;;;;33.28;30.98;;;;;;;18.42;100.00;101596.59;5103148;28;20711;-76
2024/04/05 09:26:46;;;;;;;34.00;31.60;;;;;;;18.38;100.00;101598.13;5095997;28;20063;-76
2024/04/05 09:29:13;;;;;;;37.83;35.13;;;;;;;18.52;100.00;101599.50;5094279;28;20055;-76
2024/04/05 09:31:45;;;;;;;38.33;35.63;;;;;;;19.02;100.00;101603.47;5096023;28;20804;-76
2024/04/05 09:34:18;;;;;;;36.28;33.67;;;;;;;19.33;100.00;101604.00;5095397;28;20051;-75
2024/04/05 09:36:45;;;;;;;37.90;35.20;;;;;;;18.94;100.00;101602.00;5090736;28;20059;-78
2024/04/05 09:39:16;;;;;;;35.63;33.13;;;;;;;19.36;100.00;101598.13;5092593;28;20051;-77
2024/04/05 09:41:47;;;;;;;39.70;36.35;;;;;;;20.66;100.00;101593.34;5105881;28;20059;-75
2024/04/05 09:44:17;;;;;;;40.88;38.17;;;;;;;19.97;100.00;101593.78;5101838;28;20052;-76
2024/04/05 09:46:44;;;;;;;35.63;33.22;;;;;;;20.48;100.00;101582.84;5095272;28;20060;-76
2024/04/05 09:49:14;;;;;;;35.28;32.78;;;;;;;19.60;100.00;101586.16;5089884;28;20056;-75
2024/04/05 09:51:44;;;;;;;44.03;41.22;;;;;;;21.98;100.00;101579.44;5090676;28;20048;-75
2024/04/05 09:54:12;;;;;;;38.55;35.85;;;;;;;20.18;100.00;101581.38;5102252;28;20052;-75
2024/04/05 09:56:43;;;;;;;36.35;33.75;;;;;;;20.14;100.00;101583.75;5105759;28;20574;-75
2024/04/05 09:59:17;;;;;;;37.13;34.53;;;;;;;20.84;100.00;101584.09;5091911;28;20464;-75
2024/04/05 10:01:46;;;;;;;37.42;34.83;;;;;;;20.32;100.00;101579.13;5091569;28;20131;-76
2024/04/05 10:04:24;;;;;;;35.88;33.58;;;;;;;19.78;100.00;101587.00;5085251;28;20043;-76
2024/04/05 10:06:50;;;;;;;36.33;34.03;;;;;;;20.46;100.00;101576.91;5092225;28;20082;-75
2024/04/05 10:09:19;;;;;;;40.17;37.67;;;;;;;19.87;100.00;101580.13;5102648;28;20044;-75
2024/04/05 10:11:47;;;;;;;35.55;33.35;;;;;;;20.22;100.00;101568.22;5089849;28;20051;-78
2024/04/05 10:14:23;;;;;;;35.72;33.42;;;;;;;20.04;97.13;101575.53;5093389;28;20048;-78
2024/04/05 10:17:06;;;;;;;34.08;31.88;;;;;;;19.40;100.00;101583.16;5098996;28;20048;-78
2024/04/05 10:19:33;;;;;;;42.30;39.70;;;;;;;20.20;100.00;101573.84;5103760;28;20808;-77
2024/04/05 10:22:03;;;;;;;42.92;40.35;;;;;;;21.51;100.00;101569.34;5104792;28;20059;-76
2024/04/05 10:24:30;;;;;;;46.28;43.58;;;;;;;22.59;84.61;101563.50;5091902;28;20048;-75
2024/04/05 10:26:56;;;;;;;51.72;48.65;;;;;;;21.39;85.26;101566.84;5082325;28;20039;-76
2024/04/05 10:29:26;;;;;;;47.90;44.90;;;;;;;21.00;99.19;101571.59;5095463;28;20048;-76
2024/04/05 10:32:00;;;;;;;43.65;41.05;;;;;;;21.29;100.00;101572.13;5106092;28;20131;-75
2024/04/05 10:34:32;;;;;;;46.00;42.90;;;;;;;21.45;99.19;101564.97;5094906;28;20433;-76
2024/04/05 10:37:13;;;;;;;47.67;44.85;;;;;;;21.46;90.42;101563.94;5100803;28;20055;-75
2024/04/05 10:39:42;;;;;;;46.10;43.30;;;;;;;21.15;100.00;101566.34;5094022;28;20053;-76
2024/04/05 10:42:08;;;;;;;47.60;44.80;;;;;;;21.09;100.00;101572.75;5102478;28;20052;-76
2024/04/05 10:45:00;;;;;;;50.22;47.22;;;;;;;20.79;100.00;101559.78;5104493;28;20793;-76
2024/04/05 10:47:33;;;;;;;57.00;53.80;;;;;;;21.57;99.18;101554.81;5091195;28;20052;-76
2024/04/05 10:50:02;;;;;;;49.08;46.17;;;;;;;21.18;100.00;101557.72;5100040;28;20059;-75
2024/04/05 10:52:30;;;;;;;46.47;43.58;;;;;;;23.42;83.03;101550.91;5106862;28;20044;-76
2024/04/05 10:54:57;;;;;;;43.92;41.13;;;;;;;21.61;100.00;101553.22;5103754;28;20059;-75
2024/04/05 10:57:24;;;;;;;38.95;36.45;;;;;;;22.28;90.68;101545.53;5089531;28;20047;-77
2024/04/05 10:59:54;;;;;;;41.38;38.88;;;;;;;21.98;99.60;101548.88;5102059;28;20126;-78
2024/04/05 11:02:22;;;;;;;46.15;43.45;;;;;;;22.47;98.36;101541.25;5101284;28;20548;-77
2024/04/05 11:04:51;;;;;;;54.08;50.97;;;;;;;21.78;88.79;101547.66;5098948;28;20055;-77
2024/04/05 11:07:17;;;;;;;53.67;50.58;;;;;;;22.77;100.00;101547.84;5101504;28;20051;-77
2024/04/05 11:09:45;;;;;;;60.33;56.60;;;;;;;21.76;100.00;101557.13;5106297;28;20135;-77
2024/04/05 11:12:11;;;;;;;60.95;57.05;;;;;;;21.72;80.08;101551.41;5089877;28;20056;-78
2024/04/05 11:14:39;;;;;;;66.75;62.65;;;;;;;22.21;82.83;101548.47;5097317;28;20052;-78